Time;durP1;ratioP1;P1;durP2;ratioP2;P2;SDS_P1;SDS_P2;PMS_P1;PMS_P2;Temp;Humidity;BMP_temperature;BMP_pressure;BME280_temperature;BME280_humidity;BME280_pressure;Samples;Min_cycle;Max_cycle;Signal;HPM_P1;HPM_P2
2022/08/02 00:00:09;;;;;;;5.28;4.25;;;;;;;12.45;100.00;101090.78;4991805;28;20120;-82
2022/08/02 00:02:36;;;;;;;4.72;4.15;;;;;;;12.40;100.00;101086.44;5007083;28;20034;-81
2022/08/02 00:05:04;;;;;;;6.30;4.50;;;;;;;12.33;100.00;101082.19;4974044;28;20064;-81
2022/08/02 00:07:36;;;;;;;7.53;4.38;;;;;;;12.30;100.00;101098.16;4980923;28;20057;-79
2022/08/02 00:10:08;;;;;;;4.43;3.97;;;;;;;12.23;100.00;101096.53;4990001;28;20553;-81
2022/08/02 00:12:35;;;;;;;4.65;4.07;;;;;;;12.17;100.00;101096.63;5021988;28;20506;-81
2022/08/02 00:15:04;;;;;;;4.85;3.83;;;;;;;12.15;100.00;101097.59;5002441;28;20133;-81
2022/08/02 00:17:30;;;;;;;6.03;4.30;;;;;;;12.17;100.00;101103.72;4986594;28;20418;-81
2022/08/02 00:19:57;;;;;;;5.25;3.92;;;;;;;12.13;100.00;101094.97;4990982;28;20046;-81
2022/08/02 00:22:24;;;;;;;5.28;4.40;;;;;;;12.02;100.00;101087.25;4993609;28;20046;-81
2022/08/02 00:24:51;;;;;;;5.22;4.65;;;;;;;11.98;100.00;101082.03;4988608;28;20636;-81
2022/08/02 00:27:17;;;;;;;6.93;4.15;;;;;;;11.97;100.00;101093.53;5005154;28;20480;-81
2022/08/02 00:29:46;;;;;;;5.95;4.25;;;;;;;11.87;100.00;101091.97;4988435;28;20400;-82
2022/08/02 00:32:19;;;;;;;6.20;4.32;;;;;;;11.79;100.00;101089.41;4995593;28;20035;-81
2022/08/02 00:34:45;;;;;;;4.18;3.72;;;;;;;11.72;100.00;101090.44;4974893;28;20060;-81
2022/08/02 00:37:12;;;;;;;5.00;3.85;;;;;;;11.68;100.00;101086.94;4995341;28;20038;-81
2022/08/02 00:39:39;;;;;;;4.90;4.15;;;;;;;11.69;100.00;101088.72;4990347;28;20269;-81
2022/08/02 00:42:06;;;;;;;5.70;4.20;;;;;;;11.73;100.00;101090.41;4991121;28;20057;-81
2022/08/02 00:44:33;;;;;;;6.22;4.25;;;;;;;11.67;100.00;101093.16;4992191;28;20038;-80
2022/08/02 00:47:03;;;;;;;6.15;4.00;;;;;;;11.61;100.00;101090.63;4992277;28;20038;-81
2022/08/02 00:49:30;;;;;;;5.97;4.32;;;;;;;11.59;100.00;101099.47;4990557;28;20065;-81
2022/08/02 00:51:59;;;;;;;5.53;4.32;;;;;;;11.57;100.00;101096.88;4993365;28;20069;-80
2022/08/02 00:54:26;;;;;;;4.47;3.88;;;;;;;11.52;100.00;101101.38;4991226;28;20034;-80
2022/08/02 00:56:52;;;;;;;6.47;3.95;;;;;;;11.53;100.00;101101.34;4987262;28;20042;-81
2022/08/02 00:59:19;;;;;;;5.20;4.45;;;;;;;11.49;100.00;101104.94;4987161;28;20137;-80
2022/08/02 01:01:46;;;;;;;4.82;4.00;;;;;;;11.43;100.00;101104.16;4986334;28;20037;-80
2022/08/02 01:04:26;;;;;;;5.10;4.18;;;;;;;11.36;100.00;101105.19;5002641;28;20103;-81
2022/08/02 01:06:59;;;;;;;5.43;4.40;;;;;;;11.33;100.00;101100.78;5008273;28;20513;-80
2022/08/02 01:09:26;;;;;;;4.97;4.25;;;;;;;11.32;100.00;101108.75;4992086;28;20045;-80
2022/08/02 01:11:53;;;;;;;5.78;4.47;;;;;;;11.27;100.00;101108.84;4990757;28;20445;-81
2022/08/02 01:14:21;;;;;;;5.13;4.20;;;;;;;11.22;100.00;101108.91;5007160;28;20106;-81
2022/08/02 01:17:02;;;;;;;5.90;4.45;;;;;;;11.20;100.00;101105.44;4971877;28;20046;-81
2022/08/02 01:19:50;;;;;;;5.22;3.83;;;;;;;11.17;100.00;101116.03;5000531;28;20045;-81
2022/08/02 01:22:40;;;;;;;5.22;4.05;;;;;;;11.11;100.00;101110.88;5011954;28;20046;-81
2022/08/02 01:25:32;;;;;;;6.85;4.40;;;;;;;11.10;100.00;101114.41;5022365;28;20054;-81
2022/08/02 01:28:10;;;;;;;5.35;4.30;;;;;;;11.16;100.00;101114.28;4994128;28;20042;-82
2022/08/02 01:30:40;;;;;;;5.13;4.35;;;;;;;11.12;100.00;101107.31;4977088;28;20037;-82
2022/08/02 01:33:07;;;;;;;4.53;4.10;;;;;;;11.06;100.00;101112.69;4984504;28;20037;-81
2022/08/02 01:35:40;;;;;;;5.55;4.70;;;;;;;11.02;100.00;101120.72;4977383;28;20044;-80
2022/08/02 01:38:25;;;;;;;5.15;4.53;;;;;;;10.98;100.00;101119.88;4996636;28;20069;-82
2022/08/02 01:40:52;;;;;;;5.25;4.45;;;;;;;10.93;100.00;101119.03;4989487;28;20049;-81
2022/08/02 01:43:20;;;;;;;5.43;4.32;;;;;;;10.91;100.00;101119.06;4976258;28;20042;-81
2022/08/02 01:45:47;;;;;;;5.03;4.40;;;;;;;10.88;100.00;101123.53;5007323;28;20145;-82
2022/08/02 01:48:15;;;;;;;4.78;4.25;;;;;;;10.85;100.00;101120.97;4992123;28;20518;-81
2022/08/02 01:50:45;;;;;;;6.55;4.53;;;;;;;10.81;100.00;101121.88;4991422;28;20038;-80
2022/08/02 01:53:13;;;;;;;6.45;4.05;;;;;;;10.79;100.00;101123.69;5012115;28;20123;-82
2022/08/02 01:55:42;;;;;;;5.72;4.72;;;;;;;10.82;100.00;101118.34;4991696;28;20455;-81
2022/08/02 01:58:28;;;;;;;5.57;4.25;;;;;;;10.82;100.00;101126.25;5013050;28;20045;-78
2022/08/02 02:00:56;;;;;;;4.88;4.03;;;;;;;10.77;100.00;101126.34;5005927;28;20045;-81
2022/08/02 02:03:24;;;;;;;6.15;4.53;;;;;;;10.77;100.00;101129.00;4979911;28;20069;-79
2022/08/02 02:05:54;;;;;;;4.55;4.13;;;;;;;10.76;100.00;101124.56;4972478;28;20038;-81
2022/08/02 02:08:29;;;;;;;5.90;4.60;;;;;;;10.71;100.00;101124.66;4992632;28;20054;-81
2022/08/02 02:10:55;;;;;;;;;;;;;;;10.67;100.00;101136.13;4989828;28;20038;-81
2022/08/02 02:13:23;;;;;;;4.57;3.67;;;;;;;10.63;100.00;101142.38;4983269;28;19975;-81
2022/08/02 02:16:02;;;;;;;6.15;4.53;;;;;;;10.64;100.00;101152.03;4985667;28;20496;-79
2022/08/02 02:18:29;;;;;;;5.63;4.65;;;;;;;10.62;100.00;101145.91;4988625;28;20038;-81
2022/08/02 02:20:57;;;;;;;4.95;4.45;;;;;;;10.65;100.00;101137.06;4970597;28;20041;-80
2022/08/02 02:23:23;;;;;;;5.90;4.53;;;;;;;10.66;100.00;101138.81;4993517;28;20057;-80
2022/08/02 02:25:58;;;;;;;6.10;4.50;;;;;;;10.69;100.00;101139.66;5003261;28;20058;-79
2022/08/02 02:28:30;;;;;;;4.70;4.25;;;;;;;10.72;100.00;101141.38;4986941;28;20045;-80
2022/08/02 02:31:07;;;;;;;4.65;4.07;;;;;;;10.75;100.00;101135.16;4972482;28;20046;-81
2022/08/02 02:33:39;;;;;;;5.80;4.53;;;;;;;10.76;100.00;101142.19;4979436;28;20053;-81
2022/08/02 02:36:07;;;;;;;6.80;4.40;;;;;;;10.79;100.00;101136.88;4991187;28;20037;-81
2022/08/02 02:38:35;;;;;;;4.43;3.85;;;;;;;10.80;100.00;101141.28;4975226;28;20041;-81
2022/08/02 02:41:03;;;;;;;6.10;4.40;;;;;;;10.83;100.00;101136.81;4987166;28;20049;-81
2022/08/02 02:43:31;;;;;;;6.00;4.72;;;;;;;10.87;100.00;101132.38;4974553;28;20038;-80
2022/08/02 02:45:59;;;;;;;4.72;4.20;;;;;;;10.88;100.00;101131.47;5007422;28;20049;-80
2022/08/02 02:48:26;;;;;;;6.20;4.63;;;;;;;10.85;100.00;101128.88;4992408;28;20053;-80
2022/08/02 02:50:53;;;;;;;5.38;4.70;;;;;;;10.83;100.00;101134.16;4972130;28;20514;-80
2022/08/02 02:53:21;;;;;;;5.70;4.28;;;;;;;10.82;100.00;101134.19;5006362;28;20555;-80
2022/08/02 02:55:48;;;;;;;6.22;4.38;;;;;;;10.79;100.00;101132.47;4984494;28;21152;-78
2022/08/02 02:58:29;;;;;;;4.70;4.30;;;;;;;10.71;100.00;101123.78;4989858;28;20038;-80
2022/08/02 03:03:43;;;;;;;6.00;4.50;;;;;;;10.62;100.00;101119.50;4989262;28;20487;-80
2022/08/02 03:06:10;;;;;;;5.68;4.32;;;;;;;10.60;100.00;101121.28;4998783;28;20038;-81
2022/08/02 03:08:41;;;;;;;9.80;4.93;;;;;;;10.57;100.00;101123.94;4969492;28;20038;-81
2022/08/02 03:11:08;;;;;;;4.20;3.80;;;;;;;10.50;100.00;101132.84;5000860;28;20034;-81
2022/08/02 03:13:36;;;;;;;4.60;4.03;;;;;;;10.44;100.00;101132.94;4976531;28;20038;-81
2022/08/02 03:16:03;;;;;;;4.20;3.63;;;;;;;10.41;100.00;101136.47;4988862;28;20050;-81
2022/08/02 03:18:34;;;;;;;6.47;3.85;;;;;;;10.43;100.00;101125.91;4993063;28;20042;-81
2022/08/02 03:21:06;;;;;;;4.57;4.15;;;;;;;10.38;100.00;101133.88;4970190;28;20038;-81
2022/08/02 03:23:33;;;;;;;4.47;3.75;;;;;;;10.35;100.00;101135.69;4974216;28;20042;-81
2022/08/02 03:26:00;;;;;;;6.00;4.10;;;;;;;10.33;100.00;101133.06;4988753;28;20133;-81
2022/08/02 03:28:27;;;;;;;4.50;4.10;;;;;;;10.33;100.00;101133.06;4978092;28;20046;-81
2022/08/02 03:30:54;;;;;;;5.43;4.32;;;;;;;10.29;100.00;101141.91;4998773;28;20049;-82
2022/08/02 03:33:21;;;;;;;4.57;4.15;;;;;;;10.27;100.00;101127.00;4987612;28;20061;-82
2022/08/02 03:35:49;;;;;;;6.65;4.25;;;;;;;10.31;100.00;101133.97;4980290;28;20045;-79
2022/08/02 03:38:26;;;;;;;6.40;4.05;;;;;;;10.26;100.00;101133.16;4988046;28;20044;-80
2022/08/02 03:40:56;;;;;;;4.88;4.10;;;;;;;10.25;100.00;101131.41;4971325;28;20042;-80
2022/08/02 03:43:23;;;;;;;5.10;4.40;;;;;;;10.23;100.00;101138.47;4978897;28;20133;-80
2022/08/02 03:45:54;;;;;;;4.82;4.32;;;;;;;10.20;100.00;101138.47;4986864;28;20511;-79
2022/08/02 03:48:22;;;;;;;4.18;3.78;;;;;;;10.19;100.00;101134.09;4978998;28;20058;-80
2022/08/02 03:51:01;;;;;;;4.68;3.78;;;;;;;10.18;100.00;101140.28;4977840;28;20034;-79
2022/08/02 03:53:28;;;;;;;4.22;3.83;;;;;;;10.16;100.00;101140.25;5009155;28;20430;-80
2022/08/02 03:55:55;;;;;;;6.53;3.90;;;;;;;10.15;100.00;101147.31;4994775;28;20073;-80
2022/08/02 03:58:22;;;;;;;4.70;3.70;;;;;;;10.19;100.00;101145.53;5005623;28;20061;-81
2022/08/02 04:00:51;;;;;;;4.80;4.20;;;;;;;10.12;100.00;101150.00;4983236;28;20026;-82
2022/08/02 04:03:18;;;;;;;4.40;4.00;;;;;;;10.09;100.00;101146.53;4979471;28;20046;-81
2022/08/02 04:05:45;;;;;;;4.22;3.80;;;;;;;10.08;100.00;101153.53;5020566;28;20064;-80
2022/08/02 04:08:31;;;;;;;5.25;4.15;;;;;;;10.11;100.00;101160.56;5000785;28;20053;-80
2022/08/02 04:14:02;;;;;;;4.32;3.92;;;;;;;10.10;100.00;101172.03;4993727;28;20042;-80
2022/08/02 04:16:41;;;;;;;5.03;3.92;;;;;;;10.08;100.00;101172.03;5009905;28;20058;-80
2022/08/02 04:19:10;;;;;;;8.20;4.43;;;;;;;10.10;100.00;101175.53;5005861;28;20049;-80
2022/08/02 04:21:42;;;;;;;4.38;3.97;;;;;;;10.08;100.00;101163.22;4989274;28;20045;-79
2022/08/02 04:24:21;;;;;;;5.15;3.83;;;;;;;10.12;100.00;101176.41;5007120;28;20048;-81
2022/08/02 04:26:52;;;;;;;5.15;4.60;;;;;;;10.11;100.00;101174.66;4991414;28;20048;-80
2022/08/02 04:29:23;;;;;;;5.10;4.35;;;;;;;10.16;100.00;101174.59;4992545;28;20112;-83
2022/08/02 04:31:50;;;;;;;5.03;4.10;;;;;;;10.23;100.00;101186.00;5020651;28;20030;-80
2022/08/02 04:34:17;;;;;;;5.60;4.15;;;;;;;10.30;100.00;101177.13;4988010;28;20076;-79
2022/08/02 04:36:46;;;;;;;4.45;3.33;;;;;;;10.39;100.00;101167.31;4991696;28;20457;-80
2022/08/02 04:39:13;;;;;;;4.05;3.65;;;;;;;10.51;100.00;101173.34;4987448;28;20491;-78
2022/08/02 04:41:43;;;;;;;5.13;3.97;;;;;;;10.50;100.00;101169.81;5006236;28;20030;-78
2022/08/02 04:44:10;;;;;;;4.43;4.03;;;;;;;10.49;100.00;101164.56;5003128;28;20034;-81
2022/08/02 04:46:38;;;;;;;5.63;3.72;;;;;;;10.48;100.00;101168.09;5006623;28;20034;-80
2022/08/02 04:49:05;;;;;;;4.40;4.00;;;;;;;10.49;100.00;101170.72;4988969;28;20518;-80
2022/08/02 04:51:36;;;;;;;4.63;3.80;;;;;;;10.56;100.00;101168.88;4986376;28;20044;-81
2022/08/02 04:54:04;;;;;;;5.97;4.00;;;;;;;10.58;100.00;101164.47;4975600;28;20124;-85
2022/08/02 04:56:36;;;;;;;4.43;4.03;;;;;;;10.63;100.00;101166.16;4989896;28;20034;-82
2022/08/02 04:59:02;;;;;;;3.65;3.35;;;;;;;10.67;100.00;101169.63;4991049;28;20402;-79
2022/08/02 05:01:29;;;;;;;6.35;4.30;;;;;;;10.76;100.00;101172.16;4989563;28;20604;-79
2022/08/02 05:03:59;;;;;;;6.28;4.38;;;;;;;10.78;100.00;101175.66;4993716;28;20084;-81
2022/08/02 05:06:26;;;;;;;4.70;4.20;;;;;;;10.86;100.00;101172.91;4973709;28;20042;-81
2022/08/02 05:08:52;;;;;;;7.88;5.10;;;;;;;11.01;100.00;101183.25;4989489;28;20519;-79
2022/08/02 05:11:20;;;;;;;12.85;5.00;;;;;;;11.14;100.00;101184.84;4957091;28;20054;-78
2022/08/02 05:13:48;;;;;;;8.95;5.10;;;;;;;11.19;100.00;101177.72;4988653;28;20049;-78
2022/08/02 05:16:25;;;;;;;7.82;4.43;;;;;;;11.27;100.00;101185.56;5005582;28;20115;-82
2022/08/02 05:19:00;;;;;;;3.88;3.47;;;;;;;11.28;100.00;101187.31;4990308;28;20037;-80
2022/08/02 05:21:28;;;;;;;5.10;3.75;;;;;;;11.26;100.00;101183.78;5007020;28;20042;-80
2022/08/02 05:23:55;;;;;;;4.88;3.60;;;;;;;11.32;100.00;101185.47;4973440;28;20038;-81
2022/08/02 05:26:22;;;;;;;4.80;3.97;;;;;;;11.53;100.00;101182.50;4971288;23;20077;-78
2022/08/02 05:28:49;;;;;;;5.82;3.58;;;;;;;11.77;100.00;101181.19;4935452;28;21182;-79
2022/08/02 05:31:15;;;;;;;3.42;3.13;;;;;;;11.97;100.00;101183.56;4951743;28;20488;-79
2022/08/02 05:33:42;;;;;;;3.70;3.40;;;;;;;12.11;100.00;101178.91;4964526;28;20673;-80
2022/08/02 05:36:09;;;;;;;5.53;4.20;;;;;;;12.17;100.00;101184.06;4975081;28;20054;-77
2022/08/02 05:38:36;;;;;;;3.75;3.45;;;;;;;12.25;100.00;101179.47;4971565;28;20092;-79
2022/08/02 05:41:04;;;;;;;4.55;3.65;;;;;;;12.59;100.00;101182.34;4941394;28;20479;-78
2022/08/02 05:43:31;;;;;;;6.70;3.63;;;;;;;13.12;100.00;101187.41;4962557;28;20034;-79
2022/08/02 05:45:58;;;;;;;3.63;3.13;;;;;;;13.50;100.00;101186.53;4967871;28;20038;-79
2022/08/02 05:48:24;;;;;;;3.72;3.22;;;;;;;13.89;100.00;101189.13;4969613;28;20451;-77
2022/08/02 05:51:11;;;;;;;4.25;3.47;;;;;;;14.00;100.00;101195.91;4946153;28;20038;-79
2022/08/02 05:53:47;;;;;;;4.15;3.22;;;;;;;13.98;100.00;101200.38;4951683;28;20038;-79
2022/08/02 05:56:27;;;;;;;4.75;4.00;;;;;;;14.02;100.00;101207.34;4983484;28;20129;-78
2022/08/02 05:59:15;;;;;;;6.47;3.75;;;;;;;14.17;100.00;101208.75;4974622;28;20046;-78
2022/08/02 06:01:42;;;;;;;3.75;3.40;;;;;;;14.45;100.00;101208.00;4972414;28;20043;-80
2022/08/02 06:04:10;;;;;;;6.35;4.20;;;;;;;14.72;100.00;101217.03;4982772;28;20430;-79
2022/08/02 06:06:42;;;;;;;5.10;4.00;;;;;;;14.98;100.00;101211.81;4956998;28;20046;-79
2022/08/02 06:09:14;;;;;;;4.05;3.47;;;;;;;15.32;100.00;101216.13;4942443;28;20043;-80
2022/08/02 06:11:44;;;;;;;5.85;3.80;;;;;;;16.37;100.00;101217.06;4963858;28;20088;-78
2022/08/02 06:14:32;;;;;;;5.53;3.40;;;;;;;18.25;100.00;101216.78;4972679;28;20041;-79
2022/08/02 06:17:08;;;;;;;4.18;3.30;;;;;;;19.71;91.08;101207.38;4962249;28;20039;-78
2022/08/02 06:19:39;;;;;;;4.90;3.22;;;;;;;20.12;87.20;101219.56;4949338;28;20053;-78
2022/08/02 06:22:19;;;;;;;4.30;2.80;;;;;;;20.54;80.60;101221.00;4986703;28;20034;-79
2022/08/02 06:25:06;;;;;;;5.43;3.10;;;;;;;20.76;77.67;101213.50;4971893;28;20046;-78
2022/08/02 06:27:53;;;;;;;3.83;2.78;;;;;;;20.76;77.19;101216.19;4963601;28;20053;-78
2022/08/02 06:30:21;;;;;;;5.70;3.40;;;;;;;20.65;79.45;101212.38;4984694;28;20035;-79
2022/08/02 06:32:50;;;;;;;4.97;3.42;;;;;;;20.57;78.28;101223.50;4969907;28;20050;-79
2022/08/02 06:35:17;;;;;;;5.50;2.67;;;;;;;20.49;78.97;101217.69;4968813;28;20052;-80
2022/08/02 06:37:49;;;;;;;5.57;2.75;;;;;;;20.56;78.66;101213.72;4986595;28;20053;-79
2022/08/02 06:40:43;;;;;;;14.15;3.25;;;;;;;20.61;79.04;101217.03;4968598;28;20102;-80
2022/08/02 06:43:15;;;;;;;6.55;3.85;;;;;;;20.60;75.31;101215.31;4968196;28;20050;-79
2022/08/02 06:45:42;;;;;;;5.45;3.03;;;;;;;20.83;75.94;101210.50;4980729;28;20047;-79
2022/08/02 06:48:09;;;;;;;5.45;2.88;;;;;;;20.95;74.44;101208.03;4956463;28;20695;-79
2022/08/02 06:50:37;;;;;;;7.80;3.65;;;;;;;21.01;69.22;101212.16;4951564;28;20143;-78
2022/08/02 06:53:05;;;;;;;5.45;2.78;;;;;;;20.98;68.98;101201.59;4972271;28;20187;-79
2022/08/02 06:55:32;;;;;;;10.00;3.15;;;;;;;21.11;68.79;101201.81;4983173;28;20043;-80
2022/08/02 06:58:09;;;;;;;5.22;2.60;;;;;;;21.08;67.35;101197.44;4980405;28;20133;-80
2022/08/02 07:00:36;;;;;;;3.80;2.90;;;;;;;21.18;67.49;101198.66;4964185;28;20567;-79
2022/08/02 07:03:03;;;;;;;7.28;3.08;;;;;;;21.23;66.39;101201.97;4954897;28;20042;-79
2022/08/02 07:05:30;;;;;;;6.28;2.92;;;;;;;21.42;66.49;101198.28;4967270;28;20059;-79
2022/08/02 07:07:56;;;;;;;5.00;3.10;;;;;;;21.75;65.91;101201.69;4970500;28;20042;-80
2022/08/02 07:10:23;;;;;;;7.57;3.20;;;;;;;22.16;65.00;101201.09;4952720;28;20046;-79
2022/08/02 07:12:50;;;;;;;4.55;2.67;;;;;;;22.48;61.43;101200.00;4974211;28;20053;-79
2022/08/02 07:15:17;;;;;;;3.53;2.00;;;;;;;22.65;56.05;101198.09;4984512;28;20109;-79
2022/08/02 07:17:43;;;;;;;5.13;2.47;;;;;;;22.64;57.67;101197.25;4970781;28;20035;-79
2022/08/02 07:20:12;;;;;;;10.25;3.00;;;;;;;22.57;57.67;101203.09;4982792;28;20038;-79
2022/08/02 07:22:38;;;;;;;5.03;2.40;;;;;;;22.01;55.87;101204.69;4965894;28;20519;-79
2022/08/02 07:25:05;;;;;;;5.70;2.35;;;;;;;22.01;58.56;101205.53;4969480;28;20046;-80
2022/08/02 07:27:32;;;;;;;5.47;2.33;;;;;;;22.26;56.22;101204.97;4965755;28;20061;-79
2022/08/02 07:29:59;;;;;;;4.10;2.13;;;;;;;22.46;57.15;101198.38;4960995;28;20407;-79
2022/08/02 07:32:29;;;;;;;4.60;2.65;;;;;;;21.93;56.55;101194.38;4987279;28;20514;-79
2022/08/02 07:34:56;;;;;;;4.13;2.38;;;;;;;22.27;58.74;101182.47;4940292;28;20100;-78
2022/08/02 07:37:29;;;;;;;3.63;2.20;;;;;;;22.17;57.51;101202.84;4968573;28;20043;-79
2022/08/02 07:40:16;;;;;;;4.63;2.33;;;;;;;22.41;57.18;101198.66;4976193;28;20038;-79
2022/08/02 07:42:48;;;;;;;5.78;2.15;;;;;;;22.42;57.07;101194.13;4963510;28;20046;-80
2022/08/02 07:45:15;;;;;;;6.28;2.47;;;;;;;22.71;56.74;101193.22;4963374;28;20092;-79
2022/08/02 07:47:43;;;;;;;3.95;2.45;;;;;;;23.08;54.57;101190.91;4950202;28;20035;-79
2022/08/02 07:50:11;;;;;;;5.53;2.47;;;;;;;23.41;55.60;101193.22;4956051;28;20046;-81
2022/08/02 07:52:39;;;;;;;5.70;2.50;;;;;;;23.45;54.58;101193.88;4986462;28;20026;-80
2022/08/02 07:55:07;;;;;;;7.43;2.55;;;;;;;23.74;54.50;101192.84;4964054;28;20069;-80
2022/08/02 07:57:35;;;;;;;7.85;2.85;;;;;;;23.43;52.67;101191.28;4965833;28;20153;-80
2022/08/02 08:00:03;;;;;;;5.07;2.90;;;;;;;23.64;51.78;101198.97;4950861;28;20043;-79
2022/08/02 08:02:30;;;;;;;16.80;4.13;;;;;;;23.83;52.35;101200.34;4974196;28;20035;-80
2022/08/02 08:04:57;;;;;;;4.97;2.13;;;;;;;23.60;51.01;101192.91;4950127;28;20053;-79
2022/08/02 08:07:24;;;;;;;8.00;3.05;;;;;;;23.85;51.36;101192.13;4955700;28;20562;-79
2022/08/02 08:09:51;;;;;;;4.32;2.03;;;;;;;23.56;52.33;101192.22;4948479;28;20046;-80
2022/08/02 08:12:22;;;;;;;3.63;2.20;;;;;;;24.17;51.16;101187.25;4970513;28;20511;-79
2022/08/02 08:14:49;;;;;;;5.80;2.30;;;;;;;24.46;48.66;101184.38;4955680;28;20046;-80
2022/08/02 08:17:16;;;;;;;5.10;2.63;;;;;;;24.18;48.15;101186.25;4977435;28;20039;-80
2022/08/02 08:19:42;;;;;;;2.97;2.63;;;;;;;24.15;48.30;101195.44;4960028;28;20105;-79
2022/08/02 08:22:18;;;;;;;4.47;2.97;;;;;;;23.85;48.01;101182.19;4973777;28;20039;-79
2022/08/02 08:24:46;;;;;;;3.92;2.35;;;;;;;23.06;49.75;101186.56;4968656;28;20455;-78
2022/08/02 08:27:14;;;;;;;3.05;2.13;;;;;;;23.44;51.01;101189.47;4966949;28;20399;-79
2022/08/02 08:29:41;;;;;;;6.25;2.65;;;;;;;23.64;48.39;101182.78;4952929;28;20411;-79
2022/08/02 08:32:09;;;;;;;4.75;2.17;;;;;;;24.04;48.80;101183.63;4975814;28;20377;-78
2022/08/02 08:34:42;;;;;;;12.73;3.20;;;;;;;24.21;48.90;101177.06;4949054;28;20054;-78
2022/08/02 08:37:09;;;;;;;3.85;2.10;;;;;;;24.41;48.27;101166.66;4971703;28;20038;-79
2022/08/02 08:39:45;;;;;;;3.60;2.10;;;;;;;24.84;45.66;101170.84;4980972;28;20043;-79
2022/08/02 08:42:27;;;;;;;4.00;2.50;;;;;;;24.90;45.69;101168.56;4977093;28;20042;-79
2022/08/02 08:44:55;;;;;;;7.90;2.53;;;;;;;24.26;46.27;101164.13;4956653;28;20038;-80
2022/08/02 08:47:25;;;;;;;5.90;2.50;;;;;;;24.74;47.10;101170.66;4981738;28;20562;-80
2022/08/02 08:50:03;;;;;;;4.07;2.03;;;;;;;24.75;47.10;101174.22;4990018;28;20034;-78
2022/08/02 08:52:34;;;;;;;7.18;2.90;;;;;;;25.04;45.24;101174.81;4979524;28;20038;-78
2022/08/02 08:55:03;;;;;;;4.30;2.40;;;;;;;25.27;44.39;101163.19;4977487;28;20061;-78
2022/08/02 08:57:31;;;;;;;3.03;2.20;;;;;;;25.28;44.08;101159.50;4945012;28;20043;-78
2022/08/02 08:59:58;;;;;;;4.22;2.38;;;;;;;25.38;45.14;101163.25;4958019;28;20049;-79
2022/08/02 09:02:24;;;;;;;3.10;1.90;;;;;;;25.36;45.21;101167.06;4987686;28;20038;-79
2022/08/02 09:04:54;;;;;;;4.70;2.33;;;;;;;25.19;43.76;101177.28;4977413;28;20411;-79
2022/08/02 09:07:22;;;;;;;5.90;1.95;;;;;;;25.26;43.59;101175.84;4958950;28;20039;-78
2022/08/02 09:09:48;;;;;;;4.05;2.22;;;;;;;25.63;42.73;101167.69;4962654;28;20045;-79
2022/08/02 09:12:21;;;;;;;6.93;2.78;;;;;;;25.68;41.99;101180.88;4979477;28;20030;-79
2022/08/02 09:14:47;;;;;;;6.00;2.20;;;;;;;25.18;42.69;101170.16;4977034;28;20038;-80
2022/08/02 09:17:16;;;;;;;4.03;2.17;;;;;;;25.17;43.35;101167.56;4958134;28;20093;-79
2022/08/02 09:19:43;;;;;;;4.28;2.13;;;;;;;25.47;42.21;101157.16;4981027;28;20076;-79
2022/08/02 09:22:13;;;;;;;6.05;2.65;;;;;;;25.76;42.06;101168.53;4974396;28;20038;-79
2022/08/02 09:24:47;;;;;;;4.85;2.10;;;;;;;25.08;41.74;101150.16;4965919;28;20539;-79
2022/08/02 09:27:16;;;;;;;3.28;2.08;;;;;;;25.49;41.37;101163.31;4960569;28;20104;-79
2022/08/02 09:29:48;;;;;;;5.50;2.13;;;;;;;25.70;41.21;101166.25;4989658;28;20054;-78
2022/08/02 09:32:45;;;;;;;6.82;2.28;;;;;;;25.96;40.99;101166.13;4981814;28;20084;-78
2022/08/02 09:35:13;;;;;;;4.68;1.73;;;;;;;26.31;40.33;101156.09;4957973;28;20050;-78
2022/08/02 09:37:59;;;;;;;3.83;2.40;;;;;;;26.45;40.62;101159.63;4978836;28;20030;-78
2022/08/02 09:45:15;;;;;;;5.57;1.90;;;;;;;26.91;38.63;101135.13;5002459;28;20053;-77
2022/08/02 09:47:47;;;;;;;3.97;1.83;;;;;;;27.17;38.59;101139.28;4983837;28;20089;-77
2022/08/02 09:50:14;;;;;;;4.00;2.10;;;;;;;27.28;38.30;101132.09;4969961;28;20050;-78
2022/08/02 09:52:41;;;;;;;4.78;2.20;;;;;;;26.97;38.06;101131.03;4971044;28;20100;-76
2022/08/02 09:55:10;;;;;;;4.80;2.10;;;;;;;27.20;37.37;101121.91;4955396;28;20141;-78
2022/08/02 09:57:37;;;;;;;4.68;2.00;;;;;;;27.42;37.59;101129.97;4985303;28;20665;-78
2022/08/02 10:00:10;;;;;;;5.38;2.03;;;;;;;27.61;37.32;101128.41;4969333;28;20054;-75
2022/08/02 10:03:08;;;;;;;3.47;2.08;;;;;;;27.76;36.85;101128.00;4979110;28;20407;-77
2022/08/02 10:05:54;;;;;;;3.50;1.92;;;;;;;27.96;38.02;101131.72;4978127;28;20042;-79
2022/08/02 10:08:28;;;;;;;4.35;2.20;;;;;;;27.99;36.93;101120.59;4974303;28;20491;-78
2022/08/02 10:10:59;;;;;;;6.05;2.83;;;;;;;27.70;38.10;101131.25;4975406;28;20768;-77
2022/08/02 10:13:30;;;;;;;5.03;2.30;;;;;;;27.23;37.57;101132.47;4956697;28;20057;-79
2022/08/02 10:15:57;;;;;;;3.85;2.00;;;;;;;27.32;38.46;101133.56;4967582;28;20134;-77
2022/08/02 10:18:24;;;;;;;4.78;1.85;;;;;;;27.48;36.79;101131.28;4970109;28;20055;-77
2022/08/02 10:21:06;;;;;;;2.72;1.80;;;;;;;27.69;37.12;101118.66;4973142;28;20156;-77
2022/08/02 10:23:35;;;;;;;4.82;2.30;;;;;;;27.40;36.27;101126.50;4951743;28;20049;-77
2022/08/02 10:26:02;;;;;;;3.50;2.00;;;;;;;27.42;36.60;101129.97;4952838;28;20054;-78
2022/08/02 10:28:30;;;;;;;3.45;1.92;;;;;;;27.56;35.84;101127.94;4956043;28;20038;-78
2022/08/02 10:30:58;;;;;;;5.78;1.88;;;;;;;27.78;36.30;101125.16;4969054;28;21004;-80
2022/08/02 10:33:26;;;;;;;6.07;2.45;;;;;;;28.13;36.95;101124.81;4968614;28;20104;-78
2022/08/02 10:35:56;;;;;;;3.33;1.83;;;;;;;28.23;35.93;101142.03;4954407;28;20046;-79
2022/08/02 10:38:33;;;;;;;4.20;1.98;;;;;;;28.26;34.22;101116.47;4970177;28;20058;-77
2022/08/02 10:41:00;;;;;;;5.47;2.20;;;;;;;28.39;35.31;101122.56;4987441;28;20045;-78
2022/08/02 10:43:30;;;;;;;3.25;1.90;;;;;;;28.15;35.08;101122.84;4968687;28;20043;-79
2022/08/02 10:46:32;;;;;;;3.42;1.90;;;;;;;28.14;34.21;101115.69;4982495;28;20042;-78
2022/08/02 10:49:11;;;;;;;5.95;2.38;;;;;;;27.93;35.75;101110.28;4966558;28;20050;-79
2022/08/02 10:52:01;;;;;;;5.07;2.33;;;;;;;28.14;34.96;101102.09;4982280;28;20034;-79
2022/08/02 10:54:39;;;;;;;4.22;2.10;;;;;;;27.96;35.00;101090.97;4971272;28;20047;-79
2022/08/02 10:57:20;;;;;;;8.60;2.40;;;;;;;28.05;35.07;101089.31;4977753;28;20497;-79
2022/08/02 10:59:48;;;;;;;6.28;2.28;;;;;;;27.86;36.37;101084.63;4969660;28;20042;-78
2022/08/02 11:02:32;;;;;;;2.97;2.08;;;;;;;28.03;35.30;101070.44;4972735;28;20042;-80
2022/08/02 11:04:58;;;;;;;3.90;2.17;;;;;;;28.22;36.06;101077.84;4979774;28;20049;-78
2022/08/02 11:07:37;;;;;;;4.10;2.20;;;;;;;27.85;35.92;101071.19;4963809;28;20133;-79
2022/08/02 11:10:29;;;;;;;2.65;1.90;;;;;;;28.23;36.01;101081.41;4978058;28;20039;-80
2022/08/02 11:13:05;;;;;;;4.88;1.92;;;;;;;28.55;34.88;101071.28;4978483;28;20045;-79
2022/08/02 11:15:47;;;;;;;5.72;2.47;;;;;;;28.26;34.47;101073.00;4945721;28;20046;-79
2022/08/02 11:18:14;;;;;;;5.50;2.10;;;;;;;27.90;34.46;101067.06;4960323;28;20050;-79
2022/08/02 11:20:40;;;;;;;3.22;1.80;;;;;;;28.15;35.23;101070.34;4961668;28;20034;-79
2022/08/02 11:23:35;;;;;;;3.70;2.28;;;;;;;27.90;35.67;101075.22;4951261;28;20030;-79
2022/08/02 11:26:29;;;;;;;4.50;2.35;;;;;;;28.27;35.10;101085.59;4977022;28;20069;-79
2022/08/02 11:28:57;;;;;;;2.83;1.95;;;;;;;28.21;34.94;101078.84;4955081;28;20043;-79
2022/08/02 11:31:25;;;;;;;2.45;1.65;;;;;;;28.37;33.48;101083.81;4968560;28;20133;-80
2022/08/02 11:33:54;;;;;;;2.70;1.60;;;;;;;28.41;33.19;101089.81;4946317;28;20039;-79
2022/08/02 11:36:21;;;;;;;4.22;2.00;;;;;;;28.35;31.84;101091.25;4968597;28;20050;-81
2022/08/02 11:39:07;;;;;;;3.83;1.60;;;;;;;28.79;32.67;101092.69;4973689;28;20085;-80
2022/08/02 11:41:34;;;;;;;2.92;1.75;;;;;;;28.63;32.49;101077.91;4976982;28;20042;-80
2022/08/02 11:44:12;;;;;;;3.78;1.85;;;;;;;28.51;33.09;101075.31;4967856;28;20049;-80
2022/08/02 11:46:39;;;;;;;3.53;2.10;;;;;;;28.42;34.99;101077.94;4961323;28;20129;-79
2022/08/02 11:49:14;;;;;;;4.60;1.88;;;;;;;28.27;33.65;101081.03;4973166;28;20042;-80